createdAt,value
2016-08-09T00:00:13.643Z,1014.06
2016-08-09T00:01:13.659Z,1014.08
2016-08-09T00:02:13.655Z,1014.11
2016-08-09T00:03:13.668Z,1014.1
2016-08-09T00:04:13.667Z,1014.08
2016-08-09T00:05:13.672Z,1014.1
2016-08-09T00:06:13.677Z,1014.12
2016-08-09T00:07:13.752Z,1014.09
2016-08-09T00:08:13.762Z,1014.09
2016-08-09T00:09:13.789Z,1014.09
2016-08-09T00:10:13.781Z,1014.06
2016-08-09T00:11:13.772Z,1014.08
2016-08-09T00:12:13.778Z,1014.06
2016-08-09T00:13:13.784Z,1014.04
2016-08-09T00:14:13.852Z,1014.06
2016-08-09T00:15:13.793Z,1014.03
2016-08-09T00:16:13.817Z,1014.04
2016-08-09T00:17:13.740Z,1014
2016-08-09T00:18:13.746Z,1014.01
2016-08-09T00:19:13.753Z,1014
2016-08-09T00:20:13.757Z,1014.01
2016-08-09T00:21:13.763Z,1014.02
2016-08-09T00:22:13.767Z,1013.99
2016-08-09T00:23:13.774Z,1013.94
2016-08-09T00:24:13.779Z,1013.9
2016-08-09T00:25:13.791Z,1013.94
2016-08-09T00:26:13.790Z,1013.9
2016-08-09T00:27:13.797Z,1013.92
2016-08-09T00:28:13.802Z,1013.9
2016-08-09T00:29:13.807Z,1013.92
2016-08-09T00:30:13.817Z,1013.9
2016-08-09T00:31:13.818Z,1013.86
2016-08-09T00:32:13.823Z,1013.89
2016-08-09T00:33:13.828Z,1013.89
2016-08-09T00:34:13.836Z,1013.91
2016-08-09T00:35:13.841Z,1013.92
2016-08-09T00:36:13.847Z,1013.89
2016-08-09T00:37:13.852Z,1013.9
2016-08-09T00:38:13.857Z,1013.91
2016-08-09T00:39:13.864Z,1013.86
2016-08-09T00:40:13.869Z,1013.88
2016-08-09T00:41:13.876Z,1013.87
2016-08-09T00:42:13.880Z,1013.85
2016-08-09T00:43:13.891Z,1013.84
2016-08-09T00:44:13.892Z,1013.87
2016-08-09T00:45:13.912Z,1013.88
2016-08-09T00:46:13.904Z,1013.9
2016-08-09T00:47:13.908Z,1013.87
2016-08-09T00:48:13.914Z,1013.84
2016-08-09T00:49:13.920Z,1013.83
2016-08-09T00:50:13.927Z,1013.85
2016-08-09T00:51:13.931Z,1013.88
2016-08-09T00:52:13.936Z,1013.85
2016-08-09T00:53:13.943Z,1013.85
2016-08-09T00:54:13.949Z,1013.84
2016-08-09T00:55:13.953Z,1013.86
2016-08-09T00:56:13.959Z,1013.88
2016-08-09T00:57:13.964Z,1013.87
2016-08-09T00:58:13.971Z,1013.83
2016-08-09T00:59:13.976Z,1013.84
2016-08-09T01:00:13.982Z,1013.84
2016-08-09T01:01:13.987Z,1013.83
2016-08-09T01:02:14.006Z,1013.84
2016-08-09T01:03:13.999Z,1013.85
2016-08-09T01:04:14.004Z,1013.82
2016-08-09T01:05:14.009Z,1013.85
2016-08-09T01:06:14.015Z,1013.88
2016-08-09T01:07:14.021Z,1013.89
2016-08-09T01:08:14.027Z,1013.92
2016-08-09T01:09:14.032Z,1013.87
2016-08-09T01:10:14.038Z,1013.88
2016-08-09T01:11:14.042Z,1013.89
2016-08-09T01:12:14.050Z,1013.88
2016-08-09T01:13:14.053Z,1013.9
2016-08-09T01:14:14.059Z,1013.89
2016-08-09T01:15:14.066Z,1013.86
2016-08-09T01:16:14.070Z,1013.86
2016-08-09T01:18:14.083Z,1013.89
2016-08-09T01:19:14.088Z,1013.84
2016-08-09T01:20:14.094Z,1013.88
2016-08-09T01:21:14.099Z,1013.84
2016-08-09T01:22:14.104Z,1013.9
2016-08-09T01:23:14.110Z,1013.86
2016-08-09T01:24:14.114Z,1013.88
2016-08-09T01:25:14.122Z,1013.86
2016-08-09T01:26:14.126Z,1013.87
2016-08-09T01:27:14.133Z,1013.88
2016-08-09T01:28:14.137Z,1013.87
2016-08-09T01:29:14.144Z,1013.84
2016-08-09T01:30:14.162Z,1013.9
2016-08-09T01:31:14.154Z,1013.91
2016-08-09T01:33:14.164Z,1013.91
2016-08-09T01:34:14.172Z,1013.95
2016-08-09T01:35:14.178Z,1013.98
2016-08-09T01:36:14.182Z,1013.97
2016-08-09T01:37:14.187Z,1013.98
2016-08-09T01:38:14.194Z,1014.02
2016-08-09T01:39:14.198Z,1014.04
2016-08-09T01:40:14.204Z,1014.1
2016-08-09T01:41:14.209Z,1014.12
2016-08-09T01:42:14.216Z,1014.07
2016-08-09T01:43:14.224Z,1014.05
2016-08-09T01:44:14.227Z,1014.07
2016-08-09T01:45:14.231Z,1014.09
2016-08-09T01:46:14.287Z,1014.06
2016-08-09T01:47:14.243Z,1014.06
2016-08-09T01:48:14.247Z,1014.06
2016-08-09T01:49:14.255Z,1014.02
2016-08-09T01:50:14.258Z,1013.98
2016-08-09T01:51:14.266Z,1013.95
2016-08-09T01:52:14.272Z,1013.95
2016-08-09T01:53:14.277Z,1013.95
2016-08-09T01:54:14.282Z,1013.96
2016-08-09T01:55:14.286Z,1013.97
2016-08-09T01:56:14.293Z,1013.95
2016-08-09T01:57:14.299Z,1013.97
2016-08-09T01:58:14.303Z,1013.98
2016-08-09T01:59:14.309Z,1013.99
2016-08-09T02:00:14.317Z,1014.01
2016-08-09T02:01:14.320Z,1014.04
2016-08-09T02:02:14.325Z,1014
2016-08-09T02:03:14.333Z,1014
2016-08-09T02:04:14.338Z,1014.02
2016-08-09T02:05:14.342Z,1014.02
2016-08-09T02:06:14.348Z,1013.99
2016-08-09T02:07:14.356Z,1014.02
2016-08-09T02:08:14.359Z,1014.02
2016-08-09T02:09:14.364Z,1014.07
2016-08-09T02:10:14.372Z,1014.08
2016-08-09T02:11:14.377Z,1014.05
2016-08-09T02:12:14.382Z,1014.01
2016-08-09T02:13:14.388Z,1014
2016-08-09T02:14:14.393Z,1014
2016-08-09T02:15:14.399Z,1013.99
2016-08-09T02:16:14.406Z,1013.97
2016-08-09T02:17:14.411Z,1014.02
2016-08-09T02:18:14.417Z,1013.98
2016-08-09T02:19:14.420Z,1013.99
2016-08-09T02:20:14.427Z,1014.01
2016-08-09T02:21:14.433Z,1013.99
2016-08-09T02:22:14.442Z,1013.98
2016-08-09T02:23:14.444Z,1014
2016-08-09T02:24:14.450Z,1013.97
2016-08-09T02:25:14.457Z,1013.99
2016-08-09T02:26:14.461Z,1013.91
2016-08-09T02:27:14.465Z,1013.86
2016-08-09T02:28:14.472Z,1013.87
2016-08-09T02:29:14.478Z,1013.9
2016-08-09T02:30:14.482Z,1013.92
2016-08-09T02:31:14.487Z,1013.91
2016-08-09T02:32:14.497Z,1013.92
2016-08-09T02:33:14.502Z,1013.9
2016-08-09T02:34:14.504Z,1013.9
2016-08-09T02:35:14.510Z,1013.91
2016-08-09T02:36:14.523Z,1013.87
2016-08-09T02:37:14.521Z,1013.86
2016-08-09T02:38:14.526Z,1013.84
2016-08-09T02:39:14.534Z,1013.81
2016-08-09T02:40:14.537Z,1013.85
2016-08-09T02:41:14.544Z,1013.85
2016-08-09T02:42:14.550Z,1013.84
2016-08-09T02:43:14.555Z,1013.84
2016-08-09T02:44:14.559Z,1013.88
2016-08-09T02:45:14.565Z,1013.86
2016-08-09T02:46:14.572Z,1013.9
2016-08-09T02:47:14.576Z,1013.93
2016-08-09T02:48:14.582Z,1013.92
2016-08-09T02:49:14.588Z,1013.93
2016-08-09T02:50:14.593Z,1013.96
2016-08-09T02:51:14.600Z,1013.95
2016-08-09T02:52:15.059Z,1013.93
2016-08-09T02:53:14.609Z,1013.98
2016-08-09T02:54:14.616Z,1013.99
2016-08-09T02:55:14.622Z,1013.99
2016-08-09T02:56:14.627Z,1013.99
2016-08-09T02:57:14.633Z,1013.95
2016-08-09T02:58:14.639Z,1013.96
2016-08-09T02:59:14.644Z,1013.94
2016-08-09T03:00:14.648Z,1013.9
2016-08-09T03:01:14.653Z,1013.87
2016-08-09T03:02:14.670Z,1013.87
2016-08-09T03:03:14.665Z,1013.85
2016-08-09T03:04:14.671Z,1013.87
2016-08-09T03:05:14.677Z,1013.85
2016-08-09T03:06:14.683Z,1013.88
2016-08-09T03:07:14.687Z,1013.88
2016-08-09T03:08:14.694Z,1013.87
2016-08-09T03:09:14.699Z,1013.88
2016-08-09T03:10:14.705Z,1013.9
2016-08-09T03:11:14.710Z,1013.86
2016-08-09T03:12:14.716Z,1013.88
2016-08-09T03:13:14.721Z,1013.86
2016-08-09T03:14:14.727Z,1013.9
2016-08-09T03:15:14.733Z,1013.89
2016-08-09T03:16:14.737Z,1013.92
2016-08-09T03:17:14.743Z,1013.94
2016-08-09T03:18:14.748Z,1013.93
2016-08-09T03:19:14.753Z,1013.93
2016-08-09T03:20:14.760Z,1013.95
2016-08-09T03:21:14.763Z,1013.97
2016-08-09T03:22:14.770Z,1013.98
2016-08-09T03:23:14.775Z,1013.93
2016-08-09T03:24:14.783Z,1013.95
2016-08-09T03:25:14.786Z,1013.95
2016-08-09T03:26:14.792Z,1013.97
2016-08-09T03:27:14.798Z,1013.98
2016-08-09T03:28:14.805Z,1014.01
2016-08-09T03:29:14.810Z,1014
2016-08-09T03:30:14.815Z,1014.01
2016-08-09T03:31:14.821Z,1014.01
2016-08-09T03:32:14.824Z,1014.03
2016-08-09T03:33:14.830Z,1014.02
2016-08-09T03:34:14.844Z,1014.02
2016-08-09T03:35:14.844Z,1014.05
2016-08-09T03:36:14.847Z,1013.98
2016-08-09T03:37:14.851Z,1013.98
2016-08-09T03:38:14.858Z,1014.03
2016-08-09T03:39:14.872Z,1014.05
2016-08-09T03:40:14.870Z,1014.07
2016-08-09T03:41:14.885Z,1014.08
2016-08-09T03:42:14.880Z,1014.09
2016-08-09T03:43:14.886Z,1014.1
2016-08-09T03:44:14.891Z,1014.08
2016-08-09T03:45:14.899Z,1014.13
2016-08-09T03:46:14.904Z,1014.05
2016-08-09T03:47:14.915Z,1014.13
2016-08-09T03:48:14.913Z,1014.12
2016-08-09T03:49:14.920Z,1014.07
2016-08-09T03:50:14.927Z,1014.08
2016-08-09T03:51:14.930Z,1014.06
2016-08-09T03:52:14.936Z,1014.07
2016-08-09T03:53:14.943Z,1014.09
2016-08-09T03:54:14.948Z,1014.05
2016-08-09T03:55:14.952Z,1014.05
2016-08-09T03:56:14.959Z,1014.06
2016-08-09T03:57:14.964Z,1014.07
2016-08-09T03:58:14.968Z,1014.09
2016-08-09T03:59:14.975Z,1014.08
2016-08-09T04:00:14.979Z,1014.05
2016-08-09T04:01:14.986Z,1014.05
2016-08-09T04:02:14.992Z,1014.04
2016-08-09T04:03:15.004Z,1014.02
2016-08-09T04:04:15.003Z,1014.01
2016-08-09T04:05:15.007Z,1014.05
2016-08-09T04:06:15.012Z,1014.08
2016-08-09T04:07:15.018Z,1014.07
2016-08-09T04:08:15.025Z,1014.08
2016-08-09T04:09:15.029Z,1014.07
2016-08-09T04:10:15.034Z,1014.03
2016-08-09T04:11:15.041Z,1014.04
2016-08-09T04:12:15.045Z,1014.05
2016-08-09T04:13:15.055Z,1014.01
2016-08-09T04:14:15.056Z,1013.98
2016-08-09T04:15:15.068Z,1013.94
2016-08-09T04:16:15.068Z,1013.99
2016-08-09T04:17:15.073Z,1014.01
2016-08-09T04:18:15.080Z,1013.96
2016-08-09T04:19:15.086Z,1013.99
2016-08-09T04:20:15.089Z,1014.02
2016-08-09T04:21:15.096Z,1014.01
2016-08-09T04:22:15.102Z,1014.06
2016-08-09T04:23:15.110Z,1014.07
2016-08-09T04:24:15.112Z,1014.07
2016-08-09T04:25:15.119Z,1014.08
2016-08-09T04:26:15.124Z,1014.07
2016-08-09T04:27:15.129Z,1014.1
2016-08-09T04:28:15.135Z,1014.12
2016-08-09T04:29:15.141Z,1014.1
2016-08-09T04:30:15.150Z,1014.12
2016-08-09T04:31:15.153Z,1014.1
2016-08-09T04:32:15.156Z,1014.14
2016-08-09T04:33:15.162Z,1014.11
2016-08-09T04:34:15.166Z,1014.16
2016-08-09T04:35:15.173Z,1014.16
2016-08-09T04:36:15.177Z,1014.18
2016-08-09T04:37:15.185Z,1014.19
2016-08-09T04:38:15.189Z,1014.19
2016-08-09T04:39:15.195Z,1014.2
2016-08-09T04:40:15.201Z,1014.18
2016-08-09T04:41:15.205Z,1014.15
2016-08-09T04:42:15.211Z,1014.16
2016-08-09T04:43:15.217Z,1014.18
2016-08-09T04:44:15.223Z,1014.19
2016-08-09T04:45:15.227Z,1014.2
2016-08-09T04:46:15.234Z,1014.17
2016-08-09T04:47:15.239Z,1014.21
2016-08-09T04:48:15.245Z,1014.18
2016-08-09T04:49:15.250Z,1014.15
2016-08-09T04:50:15.583Z,1014.15
2016-08-09T04:51:15.260Z,1014.23
2016-08-09T04:52:15.267Z,1014.2
2016-08-09T04:53:15.272Z,1014.22
2016-08-09T04:54:15.281Z,1014.19
2016-08-09T04:55:15.297Z,1014.2
2016-08-09T04:56:15.289Z,1014.23
2016-08-09T04:57:15.294Z,1014.22
2016-08-09T04:58:15.298Z,1014.22
2016-08-09T04:59:15.307Z,1014.23
2016-08-09T05:00:15.308Z,1014.22
2016-08-09T05:01:15.316Z,1014.22
2016-08-09T05:02:15.322Z,1014.25
2016-08-09T05:03:15.326Z,1014.25
2016-08-09T05:04:15.331Z,1014.3
2016-08-09T05:05:15.342Z,1014.29
2016-08-09T05:06:15.344Z,1014.31
2016-08-09T05:07:15.348Z,1014.36
2016-08-09T05:08:15.364Z,1014.3
2016-08-09T05:09:15.359Z,1014.32
2016-08-09T05:10:15.365Z,1014.3
2016-08-09T05:11:15.370Z,1014.33
2016-08-09T05:12:15.374Z,1014.3
2016-08-09T05:13:15.380Z,1014.34
2016-08-09T05:14:15.386Z,1014.35
2016-08-09T05:15:15.393Z,1014.33
2016-08-09T05:16:15.396Z,1014.34
2016-08-09T05:17:15.403Z,1014.34
2016-08-09T05:18:15.415Z,1014.38
2016-08-09T05:19:15.414Z,1014.39
2016-08-09T05:20:15.419Z,1014.35
2016-08-09T05:21:15.424Z,1014.37
2016-08-09T05:22:15.534Z,1014.38
2016-08-09T05:23:15.435Z,1014.42
2016-08-09T05:24:15.443Z,1014.4
2016-08-09T05:25:15.450Z,1014.39
2016-08-09T05:26:15.452Z,1014.38
2016-08-09T05:27:15.459Z,1014.39
2016-08-09T05:28:15.601Z,1014.42
2016-08-09T05:29:15.468Z,1014.45
2016-08-09T05:30:15.475Z,1014.46
2016-08-09T05:31:15.564Z,1014.45
2016-08-09T05:32:15.487Z,1014.47
2016-08-09T05:33:15.491Z,1014.43
2016-08-09T05:34:15.497Z,1014.43
2016-08-09T05:35:15.502Z,1014.42
2016-08-09T05:36:15.507Z,1014.4
2016-08-09T05:37:15.829Z,1014.43
2016-08-09T05:38:15.520Z,1014.42
2016-08-09T05:39:15.524Z,1014.46
2016-08-09T05:40:15.531Z,1014.47
2016-08-09T05:41:15.535Z,1014.45
2016-08-09T05:42:15.543Z,1014.46
2016-08-09T05:43:15.546Z,1014.42
2016-08-09T05:44:15.552Z,1014.44
2016-08-09T05:45:15.558Z,1014.45
2016-08-09T05:46:15.563Z,1014.46
2016-08-09T05:47:15.568Z,1014.46
2016-08-09T05:48:15.573Z,1014.47
2016-08-09T05:49:15.579Z,1014.46
2016-08-09T05:50:15.585Z,1014.44
2016-08-09T05:51:15.594Z,1014.45
2016-08-09T05:52:15.596Z,1014.44
2016-08-09T05:53:15.601Z,1014.43
2016-08-09T05:54:15.608Z,1014.43
2016-08-09T05:55:15.611Z,1014.41
2016-08-09T05:56:15.617Z,1014.4
2016-08-09T05:57:15.693Z,1014.41
2016-08-09T05:58:15.662Z,1014.38
2016-08-09T05:59:15.662Z,1014.43
2016-08-09T06:00:15.725Z,1014.41
2016-08-09T06:01:15.728Z,1014.38
2016-08-09T06:02:15.746Z,1014.34
2016-08-09T06:04:15.962Z,1014.33
2016-08-09T06:05:15.677Z,1014.32
2016-08-09T06:06:15.904Z,1014.28
2016-08-09T06:07:16.202Z,1014.31
2016-08-09T06:08:15.694Z,1014.27
2016-08-09T06:09:15.723Z,1014.28
2016-08-09T06:10:15.745Z,1014.32
2016-08-09T06:11:15.722Z,1014.31
2016-08-09T06:12:15.706Z,1014.34
2016-08-09T06:13:15.711Z,1014.34
2016-08-09T06:14:16.111Z,1014.3
2016-08-09T06:15:15.743Z,1014.28
2016-08-09T06:16:16.383Z,1014.28
2016-08-09T06:17:15.862Z,1014.28
2016-08-09T06:19:32.488Z,1014.29
2016-08-09T06:20:32.660Z,1014.29
2016-08-09T06:21:32.807Z,1014.29
2016-08-09T06:22:33.089Z,1014.32
2016-08-09T06:23:32.399Z,1014.23
2016-08-09T06:24:32.495Z,1014.28
2016-08-09T06:25:32.682Z,1014.3
2016-08-09T06:26:32.418Z,1014.35
2016-08-09T06:27:32.495Z,1014.34
2016-08-09T06:28:32.542Z,1014.34
2016-08-09T06:29:32.501Z,1014.38
2016-08-09T06:30:32.977Z,1014.39
2016-08-09T06:31:32.458Z,1014.41
2016-08-09T06:32:32.469Z,1014.45
2016-08-09T06:33:32.453Z,1014.44
2016-08-09T06:34:32.758Z,1014.45
2016-08-09T06:35:32.689Z,1014.5
2016-08-09T06:36:32.786Z,1014.48
2016-08-09T06:37:32.508Z,1014.52
2016-08-09T06:38:32.801Z,1014.48
2016-08-09T06:39:32.500Z,1014.46
2016-08-09T06:40:32.601Z,1014.5
2016-08-09T06:41:32.498Z,1014.44
2016-08-09T06:42:32.834Z,1014.44
2016-08-09T06:43:32.792Z,1014.43
2016-08-09T06:44:32.549Z,1014.43
2016-08-09T06:45:33.234Z,1014.42
2016-08-09T06:46:32.775Z,1014.47
2016-08-09T06:47:32.945Z,1014.51
2016-08-09T06:48:32.605Z,1014.52
2016-08-09T06:49:32.871Z,1014.52
2016-08-09T06:52:33.109Z,1014.57
2016-08-09T06:53:33.020Z,1014.58
2016-08-09T06:54:32.791Z,1014.56
2016-08-09T06:55:32.600Z,1014.59
2016-08-09T06:56:32.587Z,1014.58
2016-08-09T06:57:32.588Z,1014.59
2016-08-09T06:58:33.093Z,1014.59
2016-08-09T06:59:33.025Z,1014.59
2016-08-09T07:00:32.989Z,1014.59
2016-08-09T07:01:32.641Z,1014.57
2016-08-09T07:02:33.253Z,1014.62
2016-08-09T07:03:32.956Z,1014.61
2016-08-09T07:04:32.704Z,1014.59
2016-08-09T07:05:32.875Z,1014.57
2016-08-09T07:06:32.799Z,1014.57
2016-08-09T07:07:32.733Z,1014.59
2016-08-09T07:08:32.828Z,1014.57
2016-08-09T07:09:32.992Z,1014.55
2016-08-09T07:10:33.055Z,1014.59
2016-08-09T07:11:33.503Z,1014.57
2016-08-09T07:12:33.123Z,1014.59
2016-08-09T07:13:33.041Z,1014.53
2016-08-09T07:14:33.006Z,1014.53
2016-08-09T07:16:50.074Z,1014.53
2016-08-09T07:17:50.083Z,1014.54
2016-08-09T07:18:56.367Z,1014.53
2016-08-09T07:19:49.920Z,1014.48
2016-08-09T07:20:49.923Z,1014.52
2016-08-09T07:21:49.930Z,1014.52
2016-08-09T07:22:50.004Z,1014.51
2016-08-09T07:23:50.120Z,1014.56
2016-08-09T07:24:49.946Z,1014.56
2016-08-09T07:25:49.950Z,1014.56
2016-08-09T07:26:49.981Z,1014.62
2016-08-09T07:27:50.751Z,1014.7
2016-08-09T07:28:50.230Z,1014.76
2016-08-09T07:29:50.018Z,1014.75
2016-08-09T07:30:49.979Z,1014.74
2016-08-09T07:31:50.013Z,1014.76
2016-08-09T07:32:49.989Z,1014.74
2016-08-09T07:33:50.026Z,1014.76
2016-08-09T07:34:50.007Z,1014.77
2016-08-09T07:35:50.466Z,1014.75
2016-08-09T07:36:50.013Z,1014.74
2016-08-09T07:37:50.019Z,1014.75
2016-08-09T07:38:50.026Z,1014.71
2016-08-09T07:39:50.277Z,1014.67
2016-08-09T07:40:50.298Z,1014.67
2016-08-09T07:41:50.043Z,1014.72
2016-08-09T07:42:50.048Z,1014.72
2016-08-09T07:43:50.054Z,1014.75
2016-08-09T07:44:50.058Z,1014.76
2016-08-09T07:45:50.608Z,1014.7
2016-08-09T07:46:50.172Z,1014.71
2016-08-09T07:47:50.560Z,1014.63
2016-08-09T07:48:50.083Z,1014.63
2016-08-09T07:49:50.089Z,1014.59
2016-08-09T07:50:50.096Z,1014.63
2016-08-09T07:51:50.119Z,1014.64
2016-08-09T07:52:50.110Z,1014.65
2016-08-09T07:53:50.409Z,1014.64
2016-08-09T07:54:50.118Z,1014.6
2016-08-09T07:55:50.124Z,1014.6
2016-08-09T07:56:50.128Z,1014.61
2016-08-09T07:57:50.136Z,1014.56
2016-08-09T07:58:50.142Z,1014.51
2016-08-09T07:59:50.151Z,1014.49
2016-08-09T08:00:50.159Z,1014.51
2016-08-09T08:01:50.401Z,1014.49
2016-08-09T08:02:50.166Z,1014.5
2016-08-09T08:03:50.171Z,1014.44
2016-08-09T08:04:50.178Z,1014.48
2016-08-09T08:05:50.528Z,1014.44
2016-08-09T08:06:50.189Z,1014.47
2016-08-09T08:07:50.195Z,1014.49
2016-08-09T08:08:50.437Z,1014.5
2016-08-09T08:09:50.298Z,1014.57
2016-08-09T08:10:50.368Z,1014.68
2016-08-09T08:11:50.510Z,1014.66
2016-08-09T08:12:50.900Z,1014.77
2016-08-09T08:13:50.232Z,1014.78
2016-08-09T08:14:50.237Z,1014.79
2016-08-09T08:15:50.244Z,1014.88
2016-08-09T08:16:50.250Z,1014.99
2016-08-09T08:17:50.361Z,1014.95
2016-08-09T08:18:50.261Z,1015
2016-08-09T08:19:50.353Z,1015.07
2016-08-09T08:20:50.319Z,1015.11
2016-08-09T08:21:50.284Z,1015.08
2016-08-09T08:22:50.622Z,1015.13
2016-08-09T08:23:50.290Z,1015.05
2016-08-09T08:24:50.297Z,1015.09
2016-08-09T08:25:50.302Z,1015.01
2016-08-09T08:26:50.308Z,1015.06
2016-08-09T08:27:50.336Z,1015.09
2016-08-09T08:28:50.319Z,1015.07
2016-08-09T08:29:50.327Z,1015.07
2016-08-09T08:30:50.331Z,1015.09
2016-08-09T08:31:50.337Z,1015.08
2016-08-09T08:32:50.343Z,1015.11
2016-08-09T08:33:50.349Z,1015.09
2016-08-09T08:34:50.356Z,1015.11
2016-08-09T08:35:50.361Z,1015.17
2016-08-09T08:36:50.433Z,1015.16
2016-08-09T08:37:50.372Z,1015.19
2016-08-09T08:38:50.377Z,1015.24
2016-08-09T08:39:50.383Z,1015.23
2016-08-09T08:40:50.396Z,1015.25
2016-08-09T08:41:50.396Z,1015.22
2016-08-09T08:42:50.400Z,1015.23
2016-08-09T08:43:50.413Z,1015.26
2016-08-09T08:44:50.412Z,1015.22
2016-08-09T08:45:50.418Z,1015.18
2016-08-09T08:46:50.424Z,1015.16
2016-08-09T08:47:50.430Z,1015.19
2016-08-09T08:48:50.436Z,1015.13
2016-08-09T08:49:50.555Z,1015.12
2016-08-09T08:50:50.448Z,1015.09
2016-08-09T08:51:50.460Z,1015.07
2016-08-09T08:52:50.883Z,1015.08
2016-08-09T08:53:50.465Z,1015.07
2016-08-09T08:54:50.471Z,1015.07
2016-08-09T08:55:50.476Z,1015.09
2016-08-09T08:56:50.483Z,1015.05
2016-08-09T08:57:50.488Z,1015.16
2016-08-09T08:58:50.875Z,1015.15
2016-08-09T08:59:50.501Z,1015.16
2016-08-09T09:00:50.508Z,1015.17
2016-08-09T09:01:50.512Z,1015.22
2016-08-09T09:02:50.748Z,1015.23
2016-08-09T09:04:50.530Z,1015.19
2016-08-09T09:05:50.534Z,1015.16
2016-08-09T09:06:50.564Z,1015.19
2016-08-09T09:07:50.737Z,1015.17
2016-08-09T09:08:50.622Z,1015.17
2016-08-09T09:09:50.812Z,1015.19
2016-08-09T09:10:50.575Z,1015.14
2016-08-09T09:11:50.570Z,1015.17
2016-08-09T09:12:50.574Z,1015.19
2016-08-09T09:13:50.583Z,1015.18
2016-08-09T09:14:50.635Z,1015.17
2016-08-09T09:15:50.662Z,1015.15
2016-08-09T09:16:50.733Z,1015.12
2016-08-09T09:17:50.711Z,1015.17
2016-08-09T09:19:50.992Z,1015.18
2016-08-09T09:20:50.794Z,1015.2
2016-08-09T09:21:50.687Z,1015.24
2016-08-09T09:22:50.634Z,1015.22
2016-08-09T09:23:50.640Z,1015.22
2016-08-09T09:24:50.646Z,1015.24
2016-08-09T09:25:50.651Z,1015.24
2016-08-09T09:26:50.658Z,1015.21
2016-08-09T09:27:50.663Z,1015.23
2016-08-09T09:28:50.670Z,1015.21
2016-08-09T09:29:50.674Z,1015.23
2016-08-09T09:30:50.738Z,1015.21
2016-08-09T09:31:50.685Z,1015.22
2016-08-09T09:32:50.692Z,1015.21
2016-08-09T09:33:50.698Z,1015.19
2016-08-09T09:34:50.704Z,1015.2
2016-08-09T09:35:50.951Z,1015.16
2016-08-09T09:36:50.718Z,1015.19
2016-08-09T09:37:50.721Z,1015.17
2016-08-09T09:38:50.726Z,1015.13
2016-08-09T09:39:50.731Z,1015.19
2016-08-09T09:40:50.740Z,1015.15
2016-08-09T09:41:50.744Z,1015.16
2016-08-09T09:42:50.750Z,1015.15
2016-08-09T09:43:50.755Z,1015.14
2016-08-09T09:44:50.762Z,1015.11
2016-08-09T09:45:50.766Z,1015.17
2016-08-09T09:46:50.773Z,1015.15
2016-08-09T09:47:50.779Z,1015.13
2016-08-09T09:48:50.785Z,1015.11
2016-08-09T09:49:50.789Z,1015.09
2016-08-09T09:50:50.796Z,1015.09
2016-08-09T09:51:50.801Z,1015.09
2016-08-09T09:52:50.807Z,1015.07
2016-08-09T09:53:50.813Z,1015.06
2016-08-09T09:54:50.819Z,1015.12
2016-08-09T09:55:50.826Z,1015.11
2016-08-09T09:56:50.831Z,1015.11
2016-08-09T09:57:50.890Z,1015.09
2016-08-09T09:58:50.842Z,1015.09
2016-08-09T09:59:50.848Z,1015.05
2016-08-09T10:00:50.860Z,1015.08
2016-08-09T10:01:50.869Z,1015.08
2016-08-09T10:02:50.866Z,1015.05
2016-08-09T10:03:50.871Z,1014.98
2016-08-09T10:04:50.877Z,1015.02
2016-08-09T10:05:50.883Z,1015.02
2016-08-09T10:06:50.890Z,1014.93
2016-08-09T10:07:50.899Z,1015
2016-08-09T10:08:50.901Z,1015.04
2016-08-09T10:09:50.905Z,1015.04
2016-08-09T10:10:50.914Z,1015.02
2016-08-09T10:11:51.199Z,1015.04
2016-08-09T10:12:50.924Z,1014.98
2016-08-09T10:13:50.930Z,1014.97
2016-08-09T10:14:50.935Z,1015.01
2016-08-09T10:15:50.940Z,1015.02
2016-08-09T10:16:50.946Z,1015.01
2016-08-09T10:17:50.953Z,1015
2016-08-09T10:18:50.957Z,1014.98
2016-08-09T10:19:50.966Z,1015.03
2016-08-09T10:20:50.971Z,1015.02
2016-08-09T10:21:51.044Z,1014.98
2016-08-09T10:22:50.982Z,1014.94
2016-08-09T10:23:50.989Z,1014.93
2016-08-09T10:24:51.271Z,1014.95
2016-08-09T10:25:50.999Z,1014.98
2016-08-09T10:26:51.004Z,1014.95
2016-08-09T10:27:51.011Z,1015
2016-08-09T10:28:51.022Z,1014.98
2016-08-09T10:29:51.021Z,1014.94
2016-08-09T10:30:51.028Z,1014.95
2016-08-09T10:31:51.034Z,1014.95
2016-08-09T10:32:51.039Z,1014.9
2016-08-09T10:33:51.046Z,1014.91
2016-08-09T10:34:51.063Z,1014.9
2016-08-09T10:35:51.059Z,1014.85
2016-08-09T10:36:51.064Z,1014.88
2016-08-09T10:37:51.069Z,1014.84
2016-08-09T10:38:51.284Z,1014.79
2016-08-09T10:39:51.981Z,1014.78
2016-08-09T10:40:51.395Z,1014.8
2016-08-09T10:41:51.177Z,1014.86
2016-08-09T10:42:51.098Z,1014.8
2016-08-09T10:43:51.209Z,1014.77
2016-08-09T10:44:52.031Z,1014.69
2016-08-09T10:45:51.450Z,1014.66
2016-08-09T10:46:51.368Z,1014.65
2016-08-09T10:47:51.436Z,1014.68
2016-08-09T10:48:51.469Z,1014.65
2016-08-09T10:49:51.248Z,1014.58
2016-08-09T10:50:51.805Z,1014.59
2016-08-09T10:51:51.807Z,1014.54
2016-08-09T10:52:51.260Z,1014.52
2016-08-09T10:53:51.399Z,1014.48
2016-08-09T10:54:51.238Z,1014.52
2016-08-09T10:55:51.562Z,1014.54
2016-08-09T10:56:51.427Z,1014.5
2016-08-09T10:57:51.907Z,1014.52
2016-08-09T10:58:51.308Z,1014.51
2016-08-09T10:59:51.547Z,1014.48
2016-08-09T11:00:51.290Z,1014.52
2016-08-09T11:01:51.301Z,1014.49
2016-08-09T11:02:51.269Z,1014.45
2016-08-09T11:03:51.330Z,1014.48
2016-08-09T11:04:51.324Z,1014.42
2016-08-09T11:05:51.645Z,1014.41
2016-08-09T11:06:51.316Z,1014.51
2016-08-09T11:07:51.276Z,1014.49
2016-08-09T11:08:51.516Z,1014.46
2016-08-09T11:09:51.329Z,1014.44
2016-08-09T11:10:51.580Z,1014.49
2016-08-09T11:11:51.266Z,1014.51
2016-08-09T11:12:51.271Z,1014.5
2016-08-09T11:13:51.277Z,1014.47
2016-08-09T11:14:51.283Z,1014.44
2016-08-09T11:15:51.288Z,1014.42
2016-08-09T11:16:51.293Z,1014.49
2016-08-09T11:17:51.300Z,1014.51
2016-08-09T11:18:51.310Z,1014.5
2016-08-09T11:19:51.312Z,1014.47
2016-08-09T11:20:51.318Z,1014.47
2016-08-09T11:21:51.324Z,1014.41
2016-08-09T11:22:51.329Z,1014.5
2016-08-09T11:23:51.335Z,1014.48
2016-08-09T11:24:51.340Z,1014.51
2016-08-09T11:25:51.347Z,1014.55
2016-08-09T11:26:51.352Z,1014.52
2016-08-09T11:27:51.358Z,1014.55
2016-08-09T11:28:51.362Z,1014.52
2016-08-09T11:29:51.373Z,1014.59
2016-08-09T11:30:51.376Z,1014.57
2016-08-09T11:31:51.381Z,1014.56
2016-08-09T11:32:51.386Z,1014.55
2016-08-09T11:33:51.393Z,1014.58
2016-08-09T11:34:51.399Z,1014.64
2016-08-09T11:35:51.404Z,1014.57
2016-08-09T11:36:51.410Z,1014.56
2016-08-09T11:37:51.415Z,1014.5
2016-08-09T11:38:51.421Z,1014.53
2016-08-09T11:39:51.428Z,1014.59
2016-08-09T11:40:51.433Z,1014.58
2016-08-09T11:41:51.440Z,1014.63
2016-08-09T11:42:51.447Z,1014.57
2016-08-09T11:43:51.451Z,1014.6
2016-08-09T11:44:51.456Z,1014.56
2016-08-09T11:45:51.461Z,1014.58
2016-08-09T11:46:51.467Z,1014.58
2016-08-09T11:47:51.474Z,1014.64
2016-08-09T11:48:51.480Z,1014.6
2016-08-09T11:49:51.484Z,1014.62
2016-08-09T11:50:51.489Z,1014.63
2016-08-09T11:51:51.497Z,1014.59
2016-08-09T11:52:51.502Z,1014.61
2016-08-09T11:53:51.508Z,1014.64
2016-08-09T11:54:51.514Z,1014.61
2016-08-09T11:55:51.520Z,1014.65
2016-08-09T11:56:51.525Z,1014.63
2016-08-09T11:57:51.531Z,1014.65
2016-08-09T11:58:51.538Z,1014.67
2016-08-09T11:59:51.543Z,1014.66
2016-08-09T12:00:51.547Z,1014.71
2016-08-09T12:01:51.554Z,1014.71
2016-08-09T12:02:51.560Z,1014.68
2016-08-09T12:03:51.587Z,1014.71
2016-08-09T12:04:51.570Z,1014.75
2016-08-09T12:05:51.578Z,1014.69
2016-08-09T12:06:51.582Z,1014.71
2016-08-09T12:07:51.589Z,1014.69
2016-08-09T12:08:51.597Z,1014.7
2016-08-09T12:09:51.602Z,1014.71
2016-08-09T12:10:51.607Z,1014.71
2016-08-09T12:11:51.613Z,1014.7
2016-08-09T12:12:51.617Z,1014.71
2016-08-09T12:13:51.624Z,1014.75
2016-08-09T12:14:51.630Z,1014.68
2016-08-09T12:15:51.635Z,1014.69
2016-08-09T12:16:51.642Z,1014.7
2016-08-09T12:17:51.650Z,1014.66